METAR Data
IDs: Format: Raw Decoded Include TAF

Data at: 1356 UTC 11 Dec 2018

KLFK 111353Z AUTO 09003KT 10SM CLR M01/M01 A3042 RMK AO2 SLP302 T10111011
KLFK 111253Z AUTO 00000KT 10SM FEW002 M02/M02 A3041 RMK AO2 SLP299 I1001 T10221022
KLFK 111239Z AUTO 00000KT 9SM FEW002 M02/M02 A3041 RMK AO2 I1001 T10221022
KLFK 111232Z AUTO 00000KT 2 1/2SM BR SCT001 M02/M02 A3041 RMK AO2 I1000 T10221022
KLFK 111228Z AUTO 00000KT 1SM BR VV002 M02/M02 A3041 RMK AO2 I1000 T10221022
KLFK 111220Z AUTO 10003KT 1 1/2SM BR SCT002 M02/M02 A3041 RMK AO2 I1000 T10221022
KLFK 111206Z AUTO 09003KT 1 1/4SM BR BKN002 M02/M02 A3041 RMK AO2 VIS 3/4V5 T10221022
KLFK 111158Z AUTO 00000KT 2 1/2SM BR BKN002 M02/M03 A3041 RMK AO2 VIS 1V5 T10221028
KLFK 111153Z AUTO 10003KT 4SM BR SCT002 M03/M03 A3041 RMK AO2 SLP297 I1000 I6000 T10281028 11006 21028 53003
KLFK 111053Z AUTO 00000KT 10SM CLR M02/M02 A3039 RMK AO2 SLP292 I1000 T10221022
KLFK 110953Z AUTO 00000KT 10SM CLR M02/M02 A3040 RMK AO2 SLP293 I1000 T10171017
KLFK 110853Z AUTO 00000KT 10SM CLR M01/M02 A3040 RMK AO2 SLP292 T10111017 58001
KLFK 110753Z AUTO 00000KT 10SM CLR M01/M01 A3040 RMK AO2 SLP294 T10111011
KLFK 110653Z AUTO 00000KT 10SM CLR M01/M01 A3040 RMK AO2 SLP294 T10061006
KLFK 110553Z AUTO 00000KT 10SM CLR 00/M01 A3040 RMK AO2 SLP294 T00001006 10067 20000 401281017 51001
KLFK 110453Z AUTO 00000KT 10SM CLR 01/00 A3040 RMK AO2 SLP294 T00060000
KLFK 110353Z AUTO 00000KT 10SM CLR 01/00 A3040 RMK AO2 SLP295 T00110000
KLFK 110253Z AUTO 00000KT 10SM CLR 02/01 A3040 RMK AO2 SLP294 T00220006 53010
KLFK 110153Z AUTO 00000KT 10SM CLR 03/01 A3039 RMK AO2 SLP290 T00280011
KLFK 110053Z AUTO 00000KT 10SM CLR 04/02 A3038 RMK AO2 SLP287 T00390017
KLFK 102353Z AUTO 00000KT 10SM CLR 07/01 A3037 RMK AO2 SLP284 T00670011 10128 20061 53011
KLFK 102253Z AUTO 33003KT 10SM CLR 11/M02 A3035 RMK AO2 SLP277 T01111022
KLFK 102153Z AUTO 27004KT 10SM CLR 12/M02 A3034 RMK AO2 SLP273 T01171022
KLFK 102053Z AUTO 29005KT 10SM CLR 12/M02 A3033 RMK AO2 SLP271 T01221022 56013
KLFK 101953Z AUTO 32006KT 10SM CLR 12/M03 A3034 RMK AO2 SLP273 T01171033
KLFK 101853Z AUTO 33005KT 10SM CLR 11/M03 A3035 RMK AO2 SLP278 T01111028
KLFK 101753Z AUTO 32005KT 10SM CLR 09/00 A3037 RMK AO2 SLP284 I6001 T00890000 10089 21017 58006
KLFK 101653Z AUTO VRB05KT 10SM CLR 08/01 A3040 RMK AO2 SLP293 T00780011
KLFK 101553Z AUTO 33004KT 10SM CLR 05/01 A3040 RMK AO2 SLP295 T00500011
KLFK 101453Z AUTO 32005KT 10SM CLR 02/01 A3039 RMK AO2 SLP292 I3001 T00220011 53021
KLFK 101353Z AUTO 32003KT 10SM CLR 00/M01 A3037 RMK AO2 SLP283 T00001006
KLFK 101253Z AUTO 00000KT 10SM CLR M01/M01 A3035 RMK AO2 SLP278 I1001 T10111011
KLFK 101220Z AUTO 00000KT 8SM FEW002 M01/M01 A3034 RMK AO2 I1000 T10111011
KLFK 101212Z AUTO 00000KT 2SM BR SCT002 M02/M02 A3034 RMK AO2 T10171017
KLFK 101153Z AUTO 00000KT 1SM BR VV002 M01/M01 A3033 RMK AO2 SLP271 I1000 I6001 T10111011 10017 21011 53001
KLFK 101148Z AUTO 00000KT 1 3/4SM BR BKN002 M01/M01 A3033 RMK AO2 VIS 3/4V5
KLFK 101147Z AUTO 00000KT 2SM BR BKN002 M01/M01 A3033 RMK AO2 VIS 3/4V5
KLFK 101119Z AUTO 00000KT 9SM SCT002 M01/M01 A3033 RMK AO2 T10111011
KLFK 101053Z AUTO 00000KT 8SM CLR M01/M01 A3032 RMK AO2 SLP267 I1001 T10061006
KLFK 100953Z AUTO 00000KT 8SM CLR M01/M01 A3033 RMK AO2 SLP270 T10061006
KLFK 100853Z AUTO 00000KT 8SM CLR 01/01 A3032 RMK AO2 SLP268 T00060006 56005
KLFK 100753Z AUTO 00000KT 5SM BR CLR 00/00 A3033 RMK AO2 SLP270 T00000000
KLFK 100653Z AUTO 00000KT 3SM BR FEW002 01/01 A3033 RMK AO2 SLP270 T00110011
KLFK 100631Z AUTO 00000KT 3SM BR FEW002 01/01 A3033 RMK AO2 T00110011
KLFK 100553Z AUTO 00000KT 6SM BR CLR 02/02 A3034 RMK AO2 SLP273 I1000 I6000 T00170017 10061 20017 400720017 51006
KLFK 100453Z AUTO 00000KT 8SM CLR 03/03 A3033 RMK AO2 SLP271 T00280028
KLFK 100353Z AUTO 00000KT 5SM BR CLR 02/02 A3033 RMK AO2 SLP271 T00220022
KLFK 100253Z AUTO 00000KT 6SM BR CLR 03/03 A3032 RMK AO2 SLP268 T00330033 53010